Tropical Cyclones
[Index]
Main Index Home Page Stock Weather Photos Extreme Storms Discussion Storm News and Storm Chasing Reports Tropical Cyclones / Hurricanes / Typhoons Weather Data and Links Wild Fires / Bushfires Weather Observation Techniques Weather Picture Catalogue Tornado Pictures and Reports Stock Video Footage and DVDs for sale
Season 1999-2000 Tropical Cyclone NORMAN Track Map
Season 1999-2000 Summaries (Operational Data): [AU] [SIO] [SPAC] [SH]
<<- Previous TC | 1999-2000 Season | Next TC ->>

click for intensity scale information  Lat/long Grid: Show Hide

 Date Labels: Show Hide

Operational Tropical Cyclone Data : JTWC Advisories

Name: NORMAN
Number: 0016

28 Feb 2000 01:00 UTC to 08 Mar 2000 18:00 UTC

    date/time    lat    long     hPa   cat  kts
2000-02-28 01   16.5   128.0    1002         25          
2000-02-28 07   16.5   127.0    1000         25          
2000-02-28 16   16.5   125.5    1000         25          
2000-02-28 22   16.5   124.5    1000         25          
2000-02-29 04   17.5   122.5    1000         25          
2000-02-29 14   18.4   119.0     995         30          
2000-02-29 22   18.4   118.7     997         30          
2000-03-01 01   18.4   117.8     992    1    45          
2000-03-01 04   18.5   117.4     990    1    45          
2000-03-01 10   18.5   116.4     980    2    55          
2000-03-01 16   18.4   115.2     980    2    55          
2000-03-01 22   18.6   114.2     975    2    60          
2000-03-02 04   18.7   113.0     965    3    70          
2000-03-02 10   19.2   111.8     960    3    75          
2000-03-02 16   19.5   110.1     960    3    75          
2000-03-02 22   19.6   108.5     945    3    85          
2000-03-03 04   19.7   107.0     920    5   110          
2000-03-03 10   20.1   105.0     930    4   100          
2000-03-03 16   20.0   103.0     930    4   100          
2000-03-03 22   20.2   101.2     930    4   100          
2000-03-04 04   20.4    99.3     950    3    85          
2000-03-04 10   20.4    97.8     960    3    80          
2000-03-04 16   20.5    96.5     960    3    75          
2000-03-04 22   20.6    95.7     960    3    70          
2000-03-05 04   20.5    94.7     975    2    60          
2000-03-05 10   20.6    93.6     975    2    60          
2000-03-05 16   20.6    93.0     980    2    60          
2000-03-05 22   20.6    92.3     980    2    60          
2000-03-06 04   20.6    92.3     980    2    60          
2000-03-06 10   21.3    92.1     980    2    60          
2000-03-06 16   21.9    91.9     980    2    50          
2000-03-06 22   22.5    91.4     980    2    50          
2000-03-07 04   22.9    91.5     980    2    50          
2000-03-07 10   23.5    91.6     980    2    50          
2000-03-07 16   24.6    92.4     980    2    50          
2000-03-07 22   25.3    93.1     980    2    50          
2000-03-08 04   24.0    92.6     990    1    40          
2000-03-08 06   23.9    92.5                             
2000-03-08 18   23.5    92.6                             
Winds are 10-min average.

Tropical cyclone tracks developed by Michael Bath using operational warnings and advisories and Google Maps.


[Australian Severe Weather index] [Copyright Notice] [Email Contacts] [Search This Site] [Privacy Policy]
Document: tropical_cyclone_norman.htm Updated: 28 May 2013